Main page
METAR-TAF:

METAR-TAF

Airports :

Marília Airport

Marília, São Paulo, Brazil

latitude: 22-11-44S, longitude: 049-55-37W, elevation: 647 m

Current weather observation

The report was made 14 hours and 26 minutes ago, at 00:00 UTC
Wind 8 kt from the North/Northeast
Temperature 27°C
Humidity 62%
Pressure 1013 hPa
Visibility 10 km or more
no clouds below 1500 m and no cumulonimbus

METAR: SBML 140000Z 03008KT CAVOK 27/19 Q1013

Time: 12:26 (14:26 UTC)


TAF: missing

Weather observations and forecasts of more than 4000 airports (METAR and TAF reports).

The available stations are represented by yellow and red dots on the map.

Hover mouse over dot to see the name of the station.

Then click to see weather observations and forecasts.

To change the map : click on the green buttons with a black cross to zoom in, on the green button with a dash to zoom out, or on the green arrows for adjacent maps.


METAR-TAF: